Startpagina
METAR-TAF:

METAR-TAF

Vliegvelden :

Pohnpei, Micronesië

breedte: 06-59N, lengte: 158-12E, hoogte: 2 m

Actueel weer

Dit bericht is 4 uur en het 10 minuten geleden gemaakt, om 08:50 UTC
Wind 4 kt uit het zuiden
Temperatuur 28°C
Vochtigheid 84%
Druk 1010 hPa
Zicht: 24.1 km
Verspreide wolken op 1800 ft
Gebroken wolken op 13000 ft
Geheel bewolkt op 30000 ft

METAR: PTPN 210850Z 17004KT 15SM SCT018 BKN130 OVC300 28/25 A2983 RMK LAST

Tijdstip: 00:00 (13:00 UTC)

Verwachting

Dit bericht is 5 uur en het 9 minuten geleden gemaakt, om 07:51 UTC
Verwachting geldig van 21 om 08 UTC tot 22 om 06 UTC
Wind 11 kt uit het oosten
Zicht: 10 km
Verspreide wolken op 1800 ft
buien in de omgeving
Tijdelijke
van 21 om 08 UTC tot 21 om 12 UTC
Gebroken wolken op 1800 ft
lichte regenbuien

TAF: PTPN 210751Z 2108/2206 09011KT P6SM VCSH SCT018 TEMPO 2108/2112 -SHRA BKN018

Waarnemingen en weersverwachtingen van meer dan 4000 vliegvelden (METAR en TAF).

De beschikbare stations zijn de gele en rode punten op de kaart.

Ga met uw muis naar het station om de naam te zien.

Klik dan om waarnemingen en weersverwachtingen te zien.

kaart wijzigen: klik op de groene knoppen met een zwart kruis om in te zoomen, op de groene knop met een streepje om uit te zoomen of op de groene pijlen voor aangrenzende kaarten.


METAR-TAF: